createdAt,value
2022-11-09T00:00:48.862Z,97426.84
2022-11-09T00:03:15.272Z,97423.22
2022-11-09T00:05:41.715Z,97422.84
2022-11-09T00:08:08.485Z,97426.78
2022-11-09T00:10:34.797Z,97430.72
2022-11-09T00:13:01.235Z,97426.78
2022-11-09T00:15:27.607Z,97425.88
2022-11-09T00:17:53.961Z,97416.00
2022-11-09T00:20:20.274Z,97432.66
2022-11-09T00:22:49.759Z,97433.00
2022-11-09T00:25:16.149Z,97433.47
2022-11-09T00:27:42.541Z,97430.59
2022-11-09T00:30:10.476Z,97426.16
2022-11-09T00:32:36.793Z,97422.75
2022-11-09T00:35:03.160Z,97421.53
2022-11-09T00:37:29.913Z,97423.50
2022-11-09T00:39:56.496Z,97421.53
2022-11-09T00:42:22.813Z,97417.97
2022-11-09T00:44:49.141Z,97421.88
2022-11-09T00:47:15.484Z,97416.38
2022-11-09T00:49:41.814Z,97419.22
2022-11-09T00:52:08.386Z,97418.03
2022-11-09T00:54:34.784Z,97420.78
2022-11-09T00:57:01.119Z,97412.03
2022-11-09T00:59:27.436Z,97411.66
2022-11-09T01:01:53.767Z,97409.75
2022-11-09T01:04:20.152Z,97405.75
2022-11-09T01:06:46.542Z,97423.66
2022-11-09T01:09:12.905Z,97433.97
2022-11-09T01:11:39.243Z,97425.22
2022-11-09T01:14:05.559Z,97423.25
2022-11-09T01:16:31.962Z,97421.69
2022-11-09T01:18:58.360Z,97423.59
2022-11-09T01:21:25.082Z,97418.13
2022-11-09T01:23:51.403Z,97416.53
2022-11-09T01:26:17.734Z,97428.00
2022-11-09T01:28:44.072Z,97421.25
2022-11-09T01:31:11.614Z,97423.94
2022-11-09T01:33:39.251Z,97425.88
2022-11-09T01:36:06.328Z,97422.72
2022-11-09T01:38:32.668Z,97425.97
2022-11-09T01:40:58.985Z,97420.78
2022-11-09T01:43:25.355Z,97413.63
2022-11-09T01:45:52.610Z,97424.28
2022-11-09T01:48:20.296Z,97431.09
2022-11-09T01:50:53.937Z,97423.56
2022-11-09T01:53:21.142Z,97423.91
2022-11-09T01:55:48.599Z,97417.63
2022-11-09T01:58:16.044Z,97406.50
2022-11-09T02:00:43.015Z,97404.03
2022-11-09T02:03:10.553Z,97415.59
2022-11-09T02:05:36.973Z,97397.38
2022-11-09T02:08:03.321Z,97402.13
2022-11-09T02:10:31.973Z,97400.16
2022-11-09T02:12:58.305Z,97418.81
2022-11-09T02:15:24.673Z,97410.00
2022-11-09T02:17:54.811Z,97396.13
2022-11-09T02:20:21.972Z,97400.13
2022-11-09T02:22:48.292Z,97402.13
2022-11-09T02:25:14.705Z,97402.09
2022-11-09T02:27:41.404Z,97400.09
2022-11-09T02:30:08.058Z,97405.72
2022-11-09T02:32:34.430Z,97395.75
2022-11-09T02:35:00.740Z,97398.91
2022-11-09T02:37:27.149Z,97400.16
2022-11-09T02:39:53.476Z,97402.13
2022-11-09T02:42:21.612Z,97395.75
2022-11-09T02:44:49.531Z,97398.19
2022-11-09T02:47:15.855Z,97393.88
2022-11-09T02:49:42.425Z,97392.72
2022-11-09T02:52:08.749Z,97389.16
2022-11-09T02:54:35.201Z,97385.59
2022-11-09T02:57:01.542Z,97389.53
2022-11-09T02:59:27.866Z,97383.66
2022-11-09T03:01:54.193Z,97382.44
2022-11-09T03:04:20.506Z,97389.19
2022-11-09T03:06:46.896Z,97393.53
2022-11-09T03:09:13.317Z,97392.31
2022-11-09T03:11:39.990Z,97393.94
2022-11-09T03:14:06.305Z,97393.22
2022-11-09T03:16:32.730Z,97391.56
2022-11-09T03:18:59.123Z,97395.13
2022-11-09T03:21:25.451Z,97392.78
2022-11-09T03:23:51.766Z,97389.97
2022-11-09T03:26:18.134Z,97388.00
2022-11-09T03:28:44.481Z,97389.59
2022-11-09T03:31:11.106Z,97388.78
2022-11-09T03:33:37.443Z,97390.31
2022-11-09T03:36:03.910Z,97394.31
2022-11-09T03:38:30.228Z,97397.88
2022-11-09T03:40:56.567Z,97401.09
2022-11-09T03:43:23.263Z,97394.28
2022-11-09T03:45:49.841Z,97406.19
2022-11-09T03:48:16.606Z,97391.81
2022-11-09T03:50:43.222Z,97396.63
2022-11-09T03:53:09.623Z,97395.09
2022-11-09T03:55:36.034Z,97404.25
2022-11-09T03:58:02.571Z,97407.84
2022-11-09T04:00:28.952Z,97407.84
2022-11-09T04:02:55.282Z,97404.19
2022-11-09T04:05:21.625Z,97408.56
2022-11-09T04:07:48.642Z,97403.38
2022-11-09T04:10:15.323Z,97403.75
2022-11-09T04:12:41.634Z,97396.13
2022-11-09T04:15:08.178Z,97405.25
2022-11-09T04:17:34.637Z,97394.91
2022-11-09T04:20:01.868Z,97398.16
2022-11-09T04:22:28.211Z,97390.13
2022-11-09T04:24:54.519Z,97392.00
2022-11-09T04:27:20.927Z,97394.78
2022-11-09T04:29:47.255Z,97397.94
2022-11-09T04:32:13.982Z,97397.56
2022-11-09T04:34:41.670Z,97399.50
2022-11-09T04:37:08.488Z,97402.16
2022-11-09T04:39:34.797Z,97403.88
2022-11-09T04:42:01.199Z,97401.44
2022-11-09T04:44:27.524Z,97392.38
2022-11-09T04:46:53.858Z,97395.53
2022-11-09T04:49:20.175Z,97402.31
2022-11-09T04:51:46.499Z,97398.34
2022-11-09T04:54:12.856Z,97407.00
2022-11-09T04:56:39.183Z,97398.28
2022-11-09T04:59:05.521Z,97399.03
2022-11-09T05:01:31.845Z,97403.38
2022-11-09T05:03:58.250Z,97408.16
2022-11-09T05:06:33.751Z,97408.84
2022-11-09T05:09:06.688Z,97413.53
2022-11-09T05:11:33.328Z,97419.53
2022-11-09T05:14:00.817Z,97412.03
2022-11-09T05:16:28.012Z,97417.50
2022-11-09T05:18:54.334Z,97422.97
2022-11-09T05:21:20.702Z,97419.91
2022-11-09T05:23:59.275Z,97422.16
2022-11-09T05:26:33.569Z,97425.38
2022-11-09T05:29:00.627Z,97415.78
2022-11-09T05:31:27.176Z,97415.28
2022-11-09T05:33:53.598Z,97415.28
2022-11-09T05:36:20.053Z,97423.25
2022-11-09T05:38:46.486Z,97413.31
2022-11-09T05:41:12.869Z,97419.75
2022-11-09T05:43:39.243Z,97416.88
2022-11-09T05:46:06.857Z,97426.03
2022-11-09T05:48:33.330Z,97430.94
2022-11-09T05:51:03.241Z,97427.34
2022-11-09T05:53:29.870Z,97420.97
2022-11-09T05:55:56.181Z,97418.19
2022-11-09T05:58:22.556Z,97422.59
2022-11-09T06:00:48.884Z,97415.53
2022-11-09T06:03:15.236Z,97415.78
2022-11-09T06:05:41.602Z,97416.22
2022-11-09T06:08:08.900Z,97417.03
2022-11-09T06:10:35.320Z,97410.66
2022-11-09T06:13:01.742Z,97422.06
2022-11-09T06:15:28.107Z,97421.72
2022-11-09T06:17:54.794Z,97414.91
2022-11-09T06:20:21.262Z,97420.41
2022-11-09T06:22:58.676Z,97413.31
2022-11-09T06:25:28.057Z,97420.03
2022-11-09T06:27:55.004Z,97424.41
2022-11-09T06:30:21.433Z,97428.78
2022-11-09T06:32:47.754Z,97428.31
2022-11-09T06:35:14.413Z,97439.84
2022-11-09T06:37:40.788Z,97453.63
2022-11-09T06:40:07.450Z,97457.59
2022-11-09T06:42:33.786Z,97453.19
2022-11-09T06:45:00.120Z,97467.22
2022-11-09T06:47:27.522Z,97469.50
2022-11-09T06:49:53.856Z,97464.03
2022-11-09T06:52:20.195Z,97476.69
2022-11-09T06:54:46.520Z,97476.69
2022-11-09T06:57:12.899Z,97485.47
2022-11-09T06:59:39.222Z,97477.94
2022-11-09T07:02:05.564Z,97482.25
2022-11-09T07:04:32.058Z,97485.91
2022-11-09T07:06:58.433Z,97489.09
2022-11-09T07:09:24.789Z,97484.78
2022-11-09T07:11:51.111Z,97490.84
2022-11-09T07:14:17.486Z,97482.16
2022-11-09T07:16:43.815Z,97477.09
2022-11-09T07:19:11.338Z,97481.47
2022-11-09T07:21:37.708Z,97483.06
2022-11-09T07:24:04.023Z,97486.75
2022-11-09T07:26:30.444Z,97484.09
2022-11-09T07:28:56.764Z,97485.72
2022-11-09T07:31:23.217Z,97486.22
2022-11-09T07:33:49.683Z,97485.38
2022-11-09T07:36:21.171Z,97486.56
2022-11-09T07:38:47.977Z,97491.81
2022-11-09T07:41:14.302Z,97487.84
2022-11-09T07:43:40.871Z,97487.09
2022-11-09T07:46:07.268Z,97489.47
2022-11-09T07:48:33.787Z,97493.38
2022-11-09T07:51:00.818Z,97488.66
2022-11-09T07:53:27.134Z,97492.63
2022-11-09T07:55:57.385Z,97509.97
2022-11-09T07:58:23.720Z,97500.97
2022-11-09T08:00:50.078Z,97523.03
2022-11-09T08:03:18.157Z,97536.44
2022-11-09T08:05:44.999Z,97541.97
2022-11-09T08:08:11.495Z,97555.00
2022-11-09T08:10:37.925Z,97562.91
2022-11-09T08:13:11.916Z,97578.41
2022-11-09T08:15:38.510Z,97557.78
2022-11-09T08:18:05.876Z,97580.28
2022-11-09T08:20:32.479Z,97572.41
2022-11-09T08:23:03.597Z,97573.91
2022-11-09T08:25:30.993Z,97569.91
2022-11-09T08:27:57.350Z,97565.53
2022-11-09T08:30:23.803Z,97565.91
2022-11-09T08:32:50.292Z,97566.19
2022-11-09T08:35:18.301Z,97568.59
2022-11-09T08:37:45.113Z,97562.63
2022-11-09T08:40:11.438Z,97568.13
2022-11-09T08:42:38.010Z,97576.78
2022-11-09T08:45:04.632Z,97572.81
2022-11-09T08:47:30.962Z,97590.03
2022-11-09T08:49:57.328Z,97584.66
2022-11-09T08:52:23.697Z,97578.91
2022-11-09T08:54:50.013Z,97582.56
2022-11-09T08:57:17.560Z,97571.13
2022-11-09T08:59:43.902Z,97573.91
2022-11-09T09:02:10.467Z,97566.63
2022-11-09T09:04:36.817Z,97564.03
2022-11-09T09:07:03.194Z,97581.16
2022-11-09T09:09:29.609Z,97573.84
2022-11-09T09:11:55.926Z,97577.13
2022-11-09T09:14:22.237Z,97579.34
2022-11-09T09:16:48.576Z,97580.47
2022-11-09T09:19:14.913Z,97585.09
2022-11-09T09:21:41.245Z,97590.34
2022-11-09T09:24:07.754Z,97598.25
2022-11-09T09:26:34.105Z,97605.78
2022-11-09T09:29:00.575Z,97602.75
2022-11-09T09:31:27.380Z,97602.31
2022-11-09T09:33:53.712Z,97600.66
2022-11-09T09:36:20.831Z,97612.94
2022-11-09T09:38:47.305Z,97620.16
2022-11-09T09:41:29.000Z,97627.50
2022-11-09T09:43:56.850Z,97641.09
2022-11-09T09:46:35.365Z,97637.06
2022-11-09T09:49:03.720Z,97627.56
2022-11-09T09:51:37.997Z,97623.81
2022-11-09T09:54:12.536Z,97614.97
2022-11-09T09:56:39.449Z,97613.00
2022-11-09T09:59:18.372Z,97609.91
2022-11-09T10:01:44.773Z,97600.75
2022-11-09T10:04:18.319Z,97604.28
2022-11-09T10:06:47.791Z,97597.44
2022-11-09T10:09:32.971Z,97593.19
2022-11-09T10:12:01.325Z,97572.69
2022-11-09T10:14:33.940Z,97572.66
2022-11-09T10:17:15.738Z,97564.44
2022-11-09T10:19:48.068Z,97569.31
2022-11-09T10:22:17.419Z,97553.03
2022-11-09T10:27:36.531Z,97541.59
2022-11-09T10:30:07.754Z,97540.13
2022-11-09T10:32:34.121Z,97537.53
2022-11-09T10:35:03.497Z,97537.66
2022-11-09T10:37:43.454Z,97533.69
2022-11-09T10:40:13.149Z,97515.28
2022-11-09T10:42:39.502Z,97526.97
2022-11-09T10:45:13.621Z,97523.78
2022-11-09T10:47:50.561Z,97527.44
2022-11-09T10:50:23.006Z,97530.22
2022-11-09T10:52:49.422Z,97528.03
2022-11-09T10:55:15.738Z,97529.41
2022-11-09T10:57:50.293Z,97534.16
2022-11-09T11:00:17.435Z,97540.41
2022-11-09T11:02:45.236Z,97556.59
2022-11-09T11:05:17.667Z,97551.41
2022-11-09T11:07:44.240Z,97543.03
2022-11-09T11:10:16.863Z,97539.66
2022-11-09T11:12:43.568Z,97540.13
2022-11-09T11:15:22.037Z,97547.28
2022-11-09T11:17:48.591Z,97548.53
2022-11-09T11:20:25.523Z,97548.75
2022-11-09T11:22:55.912Z,97540.69
2022-11-09T11:25:22.468Z,97537.38
2022-11-09T11:27:50.409Z,97527.09
2022-11-09T11:30:22.844Z,97523.97
2022-11-09T11:32:50.912Z,97517.69
2022-11-09T11:35:23.699Z,97525.41
2022-11-09T11:37:56.012Z,97521.75
2022-11-09T11:40:42.596Z,97517.75
2022-11-09T11:43:15.151Z,97520.81
2022-11-09T11:45:48.105Z,97519.19
2022-11-09T11:48:32.811Z,97528.75
2022-11-09T11:51:02.653Z,97525.59
2022-11-09T11:53:33.247Z,97533.28
2022-11-09T11:56:02.605Z,97530.56
2022-11-09T11:58:29.120Z,97535.44
2022-11-09T12:00:58.769Z,97541.84
2022-11-09T12:04:00.692Z,97533.09
2022-11-09T12:06:45.515Z,97539.50
2022-11-09T12:09:11.839Z,97531.97
2022-11-09T12:11:51.111Z,97533.94
2022-11-09T12:14:33.161Z,97526.72
2022-11-09T12:17:07.032Z,97538.66
2022-11-09T12:19:45.734Z,97537.06
2022-11-09T12:22:18.178Z,97524.75
2022-11-09T12:25:09.696Z,97519.19
2022-11-09T12:27:50.599Z,97525.16
2022-11-09T12:30:40.368Z,97519.16
2022-11-09T12:33:14.270Z,97519.16
2022-11-09T12:35:45.841Z,97517.19
2022-11-09T12:38:12.186Z,97512.00
2022-11-09T12:41:02.207Z,97512.00
2022-11-09T12:43:45.725Z,97508.38
2022-11-09T12:46:12.046Z,97508.72
2022-11-09T12:48:38.360Z,97508.34
2022-11-09T12:51:04.746Z,97501.56
2022-11-09T12:53:35.142Z,97510.75
2022-11-09T12:56:02.682Z,97513.91
2022-11-09T12:58:32.464Z,97506.75
2022-11-09T13:00:59.839Z,97504.34
2022-11-09T13:03:27.588Z,97505.13
2022-11-09T13:06:20.330Z,97500.75
2022-11-09T13:09:07.520Z,97500.34
2022-11-09T13:11:41.303Z,97501.13
2022-11-09T13:14:22.903Z,97512.69
2022-11-09T13:16:49.643Z,97503.50
2022-11-09T13:19:34.711Z,97508.28
2022-11-09T13:22:23.729Z,97521.41
2022-11-09T13:24:50.031Z,97528.19
2022-11-09T13:27:36.617Z,97518.63
2022-11-09T13:30:03.219Z,97516.66
2022-11-09T13:32:30.041Z,97521.38
2022-11-09T13:34:59.784Z,97531.31
2022-11-09T13:37:34.783Z,97542.44
2022-11-09T13:40:01.099Z,97523.69
2022-11-09T13:42:30.523Z,97534.84
2022-11-09T13:45:17.588Z,97522.94
2022-11-09T13:47:49.669Z,97532.41
2022-11-09T13:50:19.482Z,97536.28
2022-11-09T13:52:52.701Z,97531.16
2022-11-09T13:55:39.302Z,97531.91
2022-11-09T13:58:15.929Z,97535.50
2022-11-09T14:00:44.979Z,97544.53
2022-11-09T14:03:24.916Z,97546.50
2022-11-09T14:05:52.406Z,97547.69
2022-11-09T14:08:20.922Z,97551.56
2022-11-09T14:11:13.759Z,97549.16
2022-11-09T14:13:40.051Z,97544.84
2022-11-09T14:16:09.332Z,97548.38
2022-11-09T14:18:55.116Z,97554.69
2022-11-09T14:21:24.669Z,97560.41
2022-11-09T14:23:51.092Z,97562.00
2022-11-09T14:26:18.766Z,97570.69
2022-11-09T14:28:45.098Z,97580.25
2022-11-09T14:31:24.502Z,97580.22
2022-11-09T14:34:04.002Z,97580.97
2022-11-09T14:36:30.551Z,97585.72
2022-11-09T14:38:58.447Z,97594.53
2022-11-09T14:41:25.646Z,97587.91
2022-11-09T14:43:52.398Z,97608.22
2022-11-09T14:46:19.705Z,97593.75
2022-11-09T14:48:56.256Z,97600.13
2022-11-09T14:51:24.494Z,97604.59
2022-11-09T14:53:50.921Z,97610.16
2022-11-09T14:56:18.275Z,97603.75
2022-11-09T14:58:44.667Z,97604.81
2022-11-09T15:01:17.055Z,97613.53
2022-11-09T15:03:43.865Z,97600.69
2022-11-09T15:06:14.013Z,97596.75
2022-11-09T15:08:50.722Z,97603.94
2022-11-09T15:11:17.056Z,97602.38
2022-11-09T15:13:43.374Z,97611.09
2022-11-09T15:16:13.279Z,97605.50
2022-11-09T15:18:42.114Z,97616.03
2022-11-09T15:21:32.616Z,97618.78
2022-11-09T15:24:08.275Z,97621.16
2022-11-09T15:26:43.187Z,97601.22
2022-11-09T15:29:28.405Z,97607.19
2022-11-09T15:32:01.515Z,97615.66
2022-11-09T15:34:29.688Z,97618.00
2022-11-09T15:36:56.017Z,97614.78
2022-11-09T15:39:22.675Z,97616.50
2022-11-09T15:41:49.002Z,97620.38
2022-11-09T15:44:15.399Z,97616.38
2022-11-09T15:46:43.811Z,97637.09
2022-11-09T15:49:13.746Z,97637.06
2022-11-09T15:51:40.075Z,97631.69
2022-11-09T15:54:06.384Z,97646.31
2022-11-09T15:56:32.735Z,97647.13
2022-11-09T15:59:00.091Z,97646.31
2022-11-09T16:01:26.535Z,97647.88
2022-11-09T16:03:52.862Z,97655.03
2022-11-09T16:06:19.331Z,97658.19
2022-11-09T16:08:49.007Z,97656.78
2022-11-09T16:11:15.337Z,97668.81
2022-11-09T16:13:41.661Z,97673.25
2022-11-09T16:16:08.353Z,97680.13
2022-11-09T16:18:34.696Z,97670.31
2022-11-09T16:21:08.368Z,97664.69
2022-11-09T16:23:35.252Z,97677.78
2022-11-09T16:26:05.704Z,97680.41
2022-11-09T16:28:32.257Z,97688.78
2022-11-09T16:30:58.589Z,97688.41
2022-11-09T16:33:24.911Z,97689.03
2022-11-09T16:35:51.270Z,97705.16
2022-11-09T16:38:17.804Z,97700.19
2022-11-09T16:40:44.410Z,97711.66
2022-11-09T16:43:10.743Z,97712.75
2022-11-09T16:45:37.124Z,97708.63
2022-11-09T16:48:04.105Z,97713.88
2022-11-09T16:50:30.434Z,97721.13
2022-11-09T16:52:56.886Z,97719.53
2022-11-09T16:55:23.256Z,97709.13
2022-11-09T16:57:50.102Z,97714.50
2022-11-09T17:00:19.678Z,97726.31
2022-11-09T17:02:45.998Z,97730.06
2022-11-09T17:05:12.327Z,97728.78
2022-11-09T17:07:42.767Z,97723.41
2022-11-09T17:10:09.543Z,97717.53
2022-11-09T17:12:35.887Z,97725.44
2022-11-09T17:15:02.240Z,97733.50
2022-11-09T17:17:28.599Z,97746.56
2022-11-09T17:19:54.924Z,97737.59
2022-11-09T17:22:21.337Z,97740.34
2022-11-09T17:24:47.711Z,97748.00
2022-11-09T17:27:14.044Z,97752.31
2022-11-09T17:29:40.357Z,97741.91
2022-11-09T17:32:07.302Z,97750.28
2022-11-09T17:34:33.692Z,97752.84
2022-11-09T17:37:05.043Z,97754.13
2022-11-09T17:39:32.013Z,97756.59
2022-11-09T17:41:58.341Z,97763.44
2022-11-09T17:44:24.674Z,97757.97
2022-11-09T17:46:51.004Z,97768.13
2022-11-09T17:49:17.314Z,97762.28
2022-11-09T17:51:43.655Z,97775.84
2022-11-09T17:54:09.982Z,97786.88
2022-11-09T17:56:36.332Z,97789.59
2022-11-09T17:59:03.394Z,97793.72
2022-11-09T18:01:29.997Z,97793.63
2022-11-09T18:03:56.422Z,97791.75
2022-11-09T18:06:23.110Z,97802.69
2022-11-09T18:09:09.561Z,97795.91
2022-11-09T18:11:35.829Z,97805.56
2022-11-09T18:14:02.553Z,97811.69
2022-11-09T18:16:28.900Z,97813.41
2022-11-09T18:19:01.812Z,97814.00
2022-11-09T18:21:28.624Z,97809.91
2022-11-09T18:23:55.361Z,97805.31
2022-11-09T18:26:21.698Z,97810.72
2022-11-09T18:28:48.030Z,97800.06
2022-11-09T18:31:14.493Z,97799.97
2022-11-09T18:33:40.995Z,97807.78
2022-11-09T18:36:09.144Z,97814.13
2022-11-09T18:38:36.163Z,97811.47
2022-11-09T18:41:09.994Z,97816.75
2022-11-09T18:43:36.318Z,97818.91
2022-11-09T18:46:03.762Z,97824.94
2022-11-09T18:48:30.319Z,97822.03
2022-11-09T18:50:56.943Z,97828.44
2022-11-09T18:53:25.127Z,97837.81
2022-11-09T18:55:51.513Z,97830.13
2022-11-09T18:58:18.035Z,97832.84
2022-11-09T19:00:44.634Z,97839.56
2022-11-09T19:03:14.820Z,97829.03
2022-11-09T19:05:44.217Z,97828.59
2022-11-09T19:08:10.569Z,97830.84
2022-11-09T19:10:36.909Z,97830.78
2022-11-09T19:13:03.630Z,97838.75
2022-11-09T19:15:30.072Z,97839.91
2022-11-09T19:17:56.466Z,97842.50
2022-11-09T19:20:22.853Z,97835.03
2022-11-09T19:22:49.255Z,97845.63
2022-11-09T19:25:15.597Z,97848.69
2022-11-09T19:27:42.014Z,97861.72
2022-11-09T19:30:09.758Z,97859.06
2022-11-09T19:32:36.328Z,97876.81
2022-11-09T19:35:02.766Z,97878.28
2022-11-09T19:37:29.227Z,97884.22
2022-11-09T19:39:55.611Z,97898.97
2022-11-09T19:42:21.983Z,97901.72
2022-11-09T19:44:52.224Z,97891.84
2022-11-09T19:47:22.486Z,97904.63
2022-11-09T19:49:48.811Z,97912.28
2022-11-09T19:52:15.148Z,97916.94
2022-11-09T19:54:43.231Z,97911.38
2022-11-09T19:57:09.578Z,97912.81
2022-11-09T19:59:35.898Z,97920.16
2022-11-09T20:02:02.346Z,97918.72
2022-11-09T20:04:28.755Z,97928.19
2022-11-09T20:06:55.130Z,97929.84
2022-11-09T20:09:21.459Z,97941.41
2022-11-09T20:12:06.660Z,97955.53
2022-11-09T20:14:33.034Z,97948.38
2022-11-09T20:17:03.429Z,97944.66
2022-11-09T20:19:30.102Z,97954.09
2022-11-09T20:21:56.471Z,97949.41
2022-11-09T20:24:22.802Z,97953.66
2022-11-09T20:26:49.148Z,97964.94
2022-11-09T20:29:15.572Z,97963.34
2022-11-09T20:31:41.977Z,97964.94
2022-11-09T20:34:08.375Z,97971.31
2022-11-09T20:36:35.136Z,97973.09
2022-11-09T20:39:01.465Z,97976.94
2022-11-09T20:41:27.929Z,97981.59
2022-11-09T20:43:54.302Z,97982.78
2022-11-09T20:46:21.512Z,97987.72
2022-11-09T20:48:53.987Z,97999.69
2022-11-09T20:51:21.180Z,98001.16
2022-11-09T20:53:47.917Z,97992.84
2022-11-09T20:56:14.338Z,97999.78
2022-11-09T20:58:40.683Z,97998.81
2022-11-09T21:01:07.104Z,98001.41
2022-11-09T21:03:33.530Z,98004.34
2022-11-09T21:06:00.087Z,98015.72
2022-11-09T21:08:26.459Z,98015.34
2022-11-09T21:10:52.868Z,98005.94
2022-11-09T21:13:19.226Z,98013.53
2022-11-09T21:15:45.596Z,98015.41
2022-11-09T21:18:11.927Z,98020.34
2022-11-09T21:20:38.319Z,98024.84
2022-11-09T21:23:13.784Z,98014.09
2022-11-09T21:25:59.063Z,98028.03
2022-11-09T21:28:44.059Z,98031.09
2022-11-09T21:31:10.380Z,98043.25
2022-11-09T21:33:36.758Z,98037.81
2022-11-09T21:36:09.969Z,98043.00
2022-11-09T21:38:36.907Z,98051.88
2022-11-09T21:41:24.238Z,98061.44
2022-11-09T21:43:53.999Z,98059.41
2022-11-09T21:46:20.306Z,98060.38
2022-11-09T21:48:46.629Z,98064.47
2022-11-09T21:51:12.969Z,98079.16
2022-11-09T21:53:39.290Z,98072.72
2022-11-09T21:56:06.125Z,98084.09
2022-11-09T21:58:32.454Z,98072.19
2022-11-09T22:01:02.306Z,98085.88
2022-11-09T22:03:28.680Z,98081.84
2022-11-09T22:05:54.996Z,98076.16
2022-11-09T22:08:21.456Z,98082.31
2022-11-09T22:10:47.816Z,98091.00
2022-11-09T22:13:32.941Z,98089.63
2022-11-09T22:16:07.863Z,98091.69
2022-11-09T22:18:53.049Z,98102.88
2022-11-09T22:21:19.623Z,98090.09
2022-11-09T22:23:45.942Z,98089.56
2022-11-09T22:26:12.315Z,98098.59
2022-11-09T22:28:38.634Z,98093.66
2022-11-09T22:31:05.202Z,98098.91
2022-11-09T22:33:32.187Z,98098.25
2022-11-09T22:35:59.740Z,98101.03
2022-11-09T22:38:26.070Z,98107.28
2022-11-09T22:40:52.546Z,98099.97
2022-11-09T22:43:19.086Z,98101.94
2022-11-09T22:45:45.537Z,98107.03
2022-11-09T22:48:11.877Z,98105.88
2022-11-09T22:50:38.259Z,98110.25
2022-11-09T22:53:04.595Z,98117.50
2022-11-09T22:55:30.924Z,98119.81
2022-11-09T22:57:57.256Z,98122.31
2022-11-09T23:00:23.589Z,98135.69
2022-11-09T23:02:49.935Z,98137.09
2022-11-09T23:05:16.272Z,98145.50
2022-11-09T23:07:42.665Z,98155.19
2022-11-09T23:10:10.273Z,98154.28
2022-11-09T23:12:36.606Z,98157.06
2022-11-09T23:15:06.137Z,98161.19
2022-11-09T23:17:54.280Z,98164.53
2022-11-09T23:20:20.915Z,98157.50
2022-11-09T23:22:47.345Z,98165.13
2022-11-09T23:25:32.549Z,98160.66
2022-11-09T23:27:59.215Z,98172.44
2022-11-09T23:30:25.581Z,98177.19
2022-11-09T23:32:52.005Z,98180.31
2022-11-09T23:35:18.480Z,98187.69
2022-11-09T23:37:44.828Z,98183.31
2022-11-09T23:40:11.376Z,98186.19
2022-11-09T23:42:38.287Z,98184.94
2022-11-09T23:45:04.793Z,98192.44
2022-11-09T23:47:31.127Z,98196.66
2022-11-09T23:49:57.456Z,98201.56
2022-11-09T23:52:24.111Z,98198.44
2022-11-09T23:54:50.428Z,98202.38
2022-11-09T23:57:16.887Z,98205.88
2022-11-09T23:59:43.212Z,98216.94
